createdAt,value
2022-12-15T00:01:41.513Z,100301.94
2022-12-15T00:04:27.025Z,100232.88
2022-12-15T00:07:11.983Z,100309.69
2022-12-15T00:09:56.823Z,100277.31
2022-12-15T00:12:41.818Z,100303.19
2022-12-15T00:15:27.157Z,100218.69
2022-12-15T00:18:12.454Z,100289.16
2022-12-15T00:20:57.490Z,100295.91
2022-12-15T00:23:42.363Z,100294.81
2022-12-15T00:26:27.310Z,100265.56
2022-12-15T00:29:12.203Z,100303.28
2022-12-15T00:31:57.341Z,100298.88
2022-12-15T00:34:42.532Z,100302.41
2022-12-15T00:37:27.558Z,100223.69
2022-12-15T00:39:58.657Z,100308.25
2022-12-15T00:42:28.855Z,100319.47
2022-12-15T00:44:56.240Z,100317.13
2022-12-15T00:47:22.846Z,100299.91
2022-12-15T00:50:07.736Z,100291.53
2022-12-15T00:52:52.915Z,100328.47
2022-12-15T00:55:38.925Z,100322.88
2022-12-15T00:58:24.299Z,100336.94
2022-12-15T01:01:09.222Z,100335.66
2022-12-15T01:03:54.031Z,100331.44
2022-12-15T01:06:39.743Z,100325.88
2022-12-15T01:09:26.656Z,100291.94
2022-12-15T01:12:12.005Z,100297.72
2022-12-15T01:14:58.050Z,100312.22
2022-12-15T01:17:44.392Z,100311.41
2022-12-15T01:20:18.288Z,100316.97
2022-12-15T01:22:46.054Z,100244.78
2022-12-15T01:25:13.668Z,100319.25
2022-12-15T01:27:40.430Z,100258.97
2022-12-15T01:30:08.824Z,100300.63
2022-12-15T01:32:35.427Z,100268.84
2022-12-15T01:35:02.637Z,100269.97
2022-12-15T01:37:29.177Z,100313.75
2022-12-15T01:40:14.212Z,100284.75
2022-12-15T01:42:40.783Z,100264.16
2022-12-15T01:45:29.075Z,100317.81
2022-12-15T01:48:05.273Z,100263.47
2022-12-15T01:50:40.916Z,100307.75
2022-12-15T01:53:09.412Z,100310.75
2022-12-15T01:55:36.852Z,100310.75
2022-12-15T01:58:06.988Z,100320.09
2022-12-15T02:03:11.573Z,100159.81
2022-12-15T02:05:39.015Z,100350.06
2022-12-15T02:08:06.360Z,100336.16
2022-12-15T02:10:47.757Z,100287.94
2022-12-15T02:13:31.656Z,100350.84
2022-12-15T02:16:19.092Z,100346.19
2022-12-15T02:19:10.582Z,100336.69
2022-12-15T02:22:06.664Z,100270.44
2022-12-15T02:25:02.623Z,100333.91
2022-12-15T02:27:52.149Z,100265.94
2022-12-15T02:30:29.235Z,100328.78
2022-12-15T02:33:01.042Z,100328.63
2022-12-15T02:35:37.227Z,100339.22
2022-12-15T02:38:04.223Z,100290.28
2022-12-15T02:40:30.702Z,100342.59
2022-12-15T02:42:59.352Z,100314.84
2022-12-15T02:45:48.901Z,100339.78
2022-12-15T02:48:41.499Z,100342.31
2022-12-15T02:51:26.731Z,100340.53
2022-12-15T02:54:31.771Z,100274.66
2022-12-15T02:57:14.953Z,100263.47
2022-12-15T02:59:55.535Z,100194.44
2022-12-15T03:02:26.668Z,100310.88
2022-12-15T03:04:53.995Z,100284.78
2022-12-15T03:07:23.871Z,100315.66
2022-12-15T03:09:50.508Z,100345.06
2022-12-15T03:12:17.043Z,100336.25
2022-12-15T03:14:44.211Z,100337.06
2022-12-15T03:17:10.819Z,100264.56
2022-12-15T03:19:37.332Z,100330.13
2022-12-15T03:22:04.408Z,100337.22
2022-12-15T03:24:31.678Z,100293.34
2022-12-15T03:26:58.241Z,100344.78
2022-12-15T03:29:24.778Z,100317.50
2022-12-15T03:31:51.487Z,100294.81
2022-12-15T03:34:18.193Z,100317.91
2022-12-15T03:36:44.623Z,100339.69
2022-12-15T03:39:12.597Z,100352.44
2022-12-15T03:41:39.050Z,100348.75
2022-12-15T03:44:05.646Z,100297.16
2022-12-15T03:46:32.134Z,100282.97
2022-12-15T03:48:58.709Z,100337.22
2022-12-15T03:51:25.393Z,100278.53
2022-12-15T03:53:52.054Z,100343.09
2022-12-15T03:56:18.578Z,100339.03
2022-12-15T03:58:45.076Z,100259.91
2022-12-15T04:01:34.284Z,100351.25
2022-12-15T04:04:01.872Z,100151.38
2022-12-15T04:06:29.416Z,100348.03
2022-12-15T04:08:55.994Z,100337.88
2022-12-15T04:11:22.538Z,100347.06
2022-12-15T04:13:49.079Z,100294.63
2022-12-15T04:16:19.766Z,100364.06
2022-12-15T04:18:46.883Z,100363.28
2022-12-15T04:21:13.373Z,100349.53
2022-12-15T04:23:39.863Z,99681.28
2022-12-15T04:26:25.033Z,100359.34
2022-12-15T04:29:09.933Z,100362.06
2022-12-15T04:31:54.793Z,100361.97
2022-12-15T04:34:43.438Z,100361.16
2022-12-15T04:37:32.970Z,100379.63
2022-12-15T04:40:18.289Z,100320.94
2022-12-15T04:43:06.346Z,100380.50
2022-12-15T04:45:52.228Z,100384.34
2022-12-15T04:48:37.433Z,100303.00
2022-12-15T04:51:23.987Z,100327.75
2022-12-15T04:54:09.108Z,100359.22
2022-12-15T04:56:54.169Z,100361.31
2022-12-15T04:59:39.113Z,100387.50
2022-12-15T05:02:24.703Z,100348.81
2022-12-15T05:05:09.970Z,100170.41
2022-12-15T05:07:54.874Z,100300.34
2022-12-15T05:10:39.797Z,100304.06
2022-12-15T05:13:26.768Z,100386.38
2022-12-15T05:16:12.571Z,100386.34
2022-12-15T05:18:57.697Z,100366.81
2022-12-15T05:21:42.503Z,100331.94
2022-12-15T05:24:27.860Z,100372.06
2022-12-15T05:27:13.349Z,100386.22
2022-12-15T05:29:58.796Z,100374.31
2022-12-15T05:32:25.223Z,100333.25
2022-12-15T05:34:51.724Z,100328.63
2022-12-15T05:37:18.173Z,100391.09
2022-12-15T05:39:44.665Z,100391.53
2022-12-15T05:42:11.279Z,100342.03
2022-12-15T05:44:37.849Z,100376.34
2022-12-15T05:47:04.962Z,100386.59
2022-12-15T05:49:31.535Z,100326.41
2022-12-15T05:51:57.953Z,100317.53
2022-12-15T05:54:24.520Z,100417.84
2022-12-15T05:56:51.038Z,100419.53
2022-12-15T05:59:19.232Z,100375.88
2022-12-15T06:01:46.435Z,100434.69
2022-12-15T06:04:13.356Z,100426.63
2022-12-15T06:06:40.888Z,100426.44
2022-12-15T06:09:07.966Z,100370.38
2022-12-15T06:11:34.737Z,100404.66
2022-12-15T06:14:01.300Z,100388.56
2022-12-15T06:16:28.322Z,100444.78
2022-12-15T06:18:57.780Z,100447.00
2022-12-15T06:21:30.705Z,100446.19
2022-12-15T06:23:57.497Z,100451.59
2022-12-15T06:26:30.036Z,100459.41
2022-12-15T06:28:58.661Z,100401.69
2022-12-15T06:31:26.138Z,100473.44
2022-12-15T06:34:00.960Z,100383.50
2022-12-15T06:36:29.190Z,100461.13
2022-12-15T06:39:02.019Z,100426.78
2022-12-15T06:41:30.553Z,100456.25
2022-12-15T06:43:57.266Z,100447.63
2022-12-15T06:46:25.587Z,100383.94
2022-12-15T06:48:52.170Z,100417.59
2022-12-15T06:51:18.879Z,100447.78
2022-12-15T06:53:48.860Z,100392.16
2022-12-15T06:56:23.344Z,100476.16
2022-12-15T06:58:54.644Z,100476.44
2022-12-15T07:01:23.982Z,100477.41
2022-12-15T07:03:51.729Z,100445.66
2022-12-15T07:06:18.786Z,100428.16
2022-12-15T07:08:52.473Z,100478.13
2022-12-15T07:11:22.176Z,100486.97
2022-12-15T07:13:54.234Z,100496.84
2022-12-15T07:16:22.224Z,100490.97
2022-12-15T07:18:49.110Z,100512.78
2022-12-15T07:21:16.031Z,100457.19
2022-12-15T07:23:58.704Z,100481.50
2022-12-15T07:26:26.132Z,100464.16
2022-12-15T07:28:53.962Z,100480.31
2022-12-15T07:31:20.837Z,100498.53
2022-12-15T07:33:48.557Z,100537.22
2022-12-15T07:36:17.666Z,100462.72
2022-12-15T07:38:49.956Z,100481.88
2022-12-15T07:41:17.807Z,100533.44
2022-12-15T07:43:45.272Z,100531.69
2022-12-15T07:46:11.772Z,100545.66
2022-12-15T07:48:38.226Z,100569.16
2022-12-15T07:51:10.952Z,100563.78
2022-12-15T07:53:39.079Z,100513.03
2022-12-15T07:56:08.500Z,100524.63
2022-12-15T07:58:36.645Z,100577.88
2022-12-15T08:01:08.726Z,100575.97
2022-12-15T08:03:36.732Z,100551.03
2022-12-15T08:06:12.428Z,100540.03
2022-12-15T08:08:40.064Z,100562.75
2022-12-15T08:11:08.330Z,100549.03
2022-12-15T08:16:22.786Z,100590.28
2022-12-15T08:18:49.395Z,100580.69
2022-12-15T08:21:15.912Z,100578.13
2022-12-15T08:23:42.438Z,100563.50
2022-12-15T08:26:12.847Z,100588.72
2022-12-15T08:28:40.686Z,100591.78
2022-12-15T08:31:16.813Z,100593.84
2022-12-15T08:33:44.755Z,100595.66
2022-12-15T08:36:13.688Z,100605.25
2022-12-15T08:38:41.538Z,100603.34
2022-12-15T08:41:16.448Z,100570.03
2022-12-15T08:43:48.244Z,100610.59
2022-12-15T08:46:21.098Z,100609.41
2022-12-15T08:48:48.168Z,100597.16
2022-12-15T08:51:15.422Z,100609.78
2022-12-15T08:53:42.194Z,100602.09
2022-12-15T08:56:15.788Z,100599.44
2022-12-15T08:58:42.679Z,100574.75
2022-12-15T09:01:16.092Z,100604.91
2022-12-15T09:03:47.372Z,100597.75
2022-12-15T09:06:19.407Z,100589.25
2022-12-15T09:08:48.485Z,100604.53
2022-12-15T09:11:17.684Z,100559.50
2022-12-15T09:13:47.306Z,100599.38
2022-12-15T09:16:16.944Z,100609.34
2022-12-15T09:18:46.695Z,100594.63
2022-12-15T09:21:14.486Z,100596.66
2022-12-15T09:23:41.814Z,100610.03
2022-12-15T09:26:14.446Z,100609.44
2022-12-15T09:28:43.012Z,100605.59
2022-12-15T09:31:21.330Z,100605.59
2022-12-15T09:33:49.330Z,100556.69
2022-12-15T09:36:26.104Z,100578.69
2022-12-15T09:38:53.094Z,100617.53
2022-12-15T09:41:32.014Z,100616.59
2022-12-15T09:44:12.214Z,100622.53
2022-12-15T09:46:49.929Z,100615.53
2022-12-15T09:49:36.566Z,100528.41
2022-12-15T09:52:11.041Z,100620.00
2022-12-15T09:54:38.830Z,100637.25
2022-12-15T09:57:16.837Z,100610.94
2022-12-15T09:59:55.094Z,100642.84
2022-12-15T10:02:46.457Z,100640.91
2022-12-15T10:06:06.170Z,100640.16
2022-12-15T10:08:25.051Z,100590.50
2022-12-15T10:11:00.478Z,100626.50
2022-12-15T10:13:42.685Z,100617.81
2022-12-15T10:16:40.887Z,100603.41
2022-12-15T10:19:24.267Z,100545.00
2022-12-15T10:21:50.839Z,100606.63
2022-12-15T10:25:07.343Z,100525.56
2022-12-15T10:27:39.363Z,100612.53
2022-12-15T10:30:10.167Z,100609.50
2022-12-15T10:32:51.967Z,100614.91
2022-12-15T10:35:28.957Z,100592.03
2022-12-15T10:38:06.942Z,100590.88
2022-12-15T10:40:50.149Z,100605.88
2022-12-15T10:43:25.565Z,100608.59
2022-12-15T10:46:15.643Z,100618.19
2022-12-15T10:48:44.146Z,100576.31
2022-12-15T10:51:24.616Z,100621.22
2022-12-15T10:54:13.899Z,100604.84
2022-12-15T10:56:59.983Z,100609.72
2022-12-15T10:59:34.321Z,100613.00
2022-12-15T11:02:26.259Z,100620.59
2022-12-15T11:04:58.284Z,100614.22
2022-12-15T11:07:49.125Z,100617.28
2022-12-15T11:10:17.703Z,100596.44
2022-12-15T11:12:58.352Z,100622.13
2022-12-15T11:15:25.023Z,100609.28
2022-12-15T11:18:19.535Z,100597.50
2022-12-15T11:21:14.083Z,100612.81
2022-12-15T11:24:11.977Z,100616.88
2022-12-15T11:26:53.625Z,100620.31
2022-12-15T11:29:53.405Z,100614.06
2022-12-15T11:32:25.322Z,100619.59
2022-12-15T11:34:52.093Z,100562.69
2022-12-15T11:37:36.868Z,100629.09
2022-12-15T11:40:20.516Z,100618.31
2022-12-15T11:43:02.489Z,100625.38
2022-12-15T11:45:41.224Z,100625.94
2022-12-15T11:48:17.492Z,100610.28
2022-12-15T11:50:54.023Z,100642.09
2022-12-15T11:53:39.492Z,100643.94
2022-12-15T11:56:23.970Z,100647.75
2022-12-15T11:59:23.363Z,100635.22
2022-12-15T12:02:02.705Z,100640.16
2022-12-15T12:04:34.699Z,100558.56
2022-12-15T12:07:26.102Z,100593.94
2022-12-15T12:10:04.651Z,100632.88
2022-12-15T12:12:42.340Z,100650.41
2022-12-15T12:15:11.518Z,100647.56
2022-12-15T12:17:55.218Z,100620.22
2022-12-15T12:20:27.919Z,100647.56
2022-12-15T12:23:31.695Z,100639.59
2022-12-15T12:26:05.978Z,100645.69
2022-12-15T12:28:44.974Z,100587.34
2022-12-15T12:31:29.814Z,100648.25
2022-12-15T12:34:03.136Z,100642.75
2022-12-15T12:36:29.710Z,100638.47
2022-12-15T12:38:57.927Z,100584.69
2022-12-15T12:41:48.504Z,100640.66
2022-12-15T12:44:37.933Z,100652.91
2022-12-15T12:47:25.630Z,100600.81
2022-12-15T12:49:56.632Z,100650.00
2022-12-15T12:52:35.606Z,100636.28
2022-12-15T12:55:14.534Z,100645.75
2022-12-15T12:57:42.940Z,100637.56
2022-12-15T13:00:19.654Z,100568.78
2022-12-15T13:02:46.333Z,100629.41
2022-12-15T13:05:29.382Z,100623.63
2022-12-15T13:08:13.969Z,100638.78
2022-12-15T13:10:41.804Z,100637.28
2022-12-15T13:13:17.416Z,100639.94
2022-12-15T13:15:46.776Z,100578.66
2022-12-15T13:18:26.906Z,100646.81
2022-12-15T13:20:57.690Z,100645.69
2022-12-15T13:23:25.420Z,100636.16
2022-12-15T13:25:59.037Z,100631.41
2022-12-15T13:28:44.132Z,100575.59
2022-12-15T13:31:21.471Z,100637.13
2022-12-15T13:33:51.059Z,100643.50
2022-12-15T13:36:42.198Z,100642.88
2022-12-15T13:39:12.388Z,100640.94
2022-12-15T13:41:54.549Z,100592.88
2022-12-15T13:44:35.973Z,100648.97
2022-12-15T13:47:22.516Z,100642.38
2022-12-15T13:50:01.413Z,100650.00
2022-12-15T13:55:46.258Z,100643.41
2022-12-15T13:58:18.521Z,100651.16
2022-12-15T14:00:51.483Z,100649.91
2022-12-15T14:03:18.153Z,100642.81
2022-12-15T14:05:50.174Z,100627.50
2022-12-15T14:08:18.939Z,100651.91
2022-12-15T14:10:54.052Z,100647.19
2022-12-15T14:13:36.146Z,100653.34
2022-12-15T14:16:23.571Z,100651.25
2022-12-15T14:19:14.791Z,100613.31
2022-12-15T14:21:49.110Z,100646.97
2022-12-15T14:24:39.187Z,100648.06
2022-12-15T14:27:07.039Z,100647.88
2022-12-15T14:29:33.807Z,100610.50
2022-12-15T14:32:00.870Z,100655.31
2022-12-15T14:34:32.517Z,100619.91
2022-12-15T14:37:02.536Z,100629.78
2022-12-15T14:39:43.285Z,100663.44
2022-12-15T14:42:23.257Z,100629.97
2022-12-15T14:44:54.954Z,100624.91
2022-12-15T14:47:28.591Z,100655.47
2022-12-15T14:49:57.718Z,100641.53
2022-12-15T14:52:29.418Z,100671.63
2022-12-15T14:54:58.915Z,100672.63
2022-12-15T14:57:40.792Z,100663.13
2022-12-15T15:00:33.352Z,100677.00
2022-12-15T15:03:18.478Z,100671.56
2022-12-15T15:05:48.118Z,100666.41
2022-12-15T15:08:23.018Z,100627.84
2022-12-15T15:10:52.097Z,100673.38
2022-12-15T15:13:25.208Z,100642.72
2022-12-15T15:16:01.118Z,100651.69
2022-12-15T15:18:29.791Z,100665.66
2022-12-15T15:21:03.994Z,100669.53
2022-12-15T15:23:31.290Z,100681.88
2022-12-15T15:26:08.410Z,100626.47
2022-12-15T15:28:40.357Z,100684.69
2022-12-15T15:31:25.083Z,100682.72
2022-12-15T15:33:52.897Z,100689.28
2022-12-15T15:36:19.768Z,100696.38
2022-12-15T15:38:46.861Z,100695.09
2022-12-15T15:41:31.575Z,100684.75
2022-12-15T15:44:00.324Z,100689.78
2022-12-15T15:46:30.861Z,100661.16
2022-12-15T15:49:00.887Z,100688.56
2022-12-15T15:51:29.735Z,100680.13
2022-12-15T15:54:00.790Z,100679.91
2022-12-15T15:56:28.346Z,100704.63
2022-12-15T15:58:54.858Z,100697.88
2022-12-15T16:01:21.552Z,100672.16
2022-12-15T16:03:48.511Z,100696.00
2022-12-15T16:06:21.100Z,100598.72
2022-12-15T16:08:51.428Z,100686.13
2022-12-15T16:11:18.092Z,100684.16
2022-12-15T16:13:45.083Z,100682.66
2022-12-15T16:16:24.188Z,100672.03
2022-12-15T16:18:50.731Z,100619.38
2022-12-15T16:21:17.990Z,100632.84
2022-12-15T16:23:47.160Z,100676.16
2022-12-15T16:26:16.424Z,100671.72
2022-12-15T16:28:43.427Z,100674.81
2022-12-15T16:31:15.852Z,100670.28
2022-12-15T16:33:42.563Z,100676.88
2022-12-15T16:36:13.765Z,100612.84
2022-12-15T16:38:41.090Z,100686.81
2022-12-15T16:41:14.297Z,100681.72
2022-12-15T16:43:46.154Z,100588.84
2022-12-15T16:46:15.521Z,100666.84
2022-12-15T16:48:43.487Z,100698.38
2022-12-15T16:51:38.876Z,100660.69
2022-12-15T16:54:06.140Z,100705.47
2022-12-15T16:56:33.059Z,100644.13
2022-12-15T16:59:30.902Z,100710.47
2022-12-15T17:01:46.473Z,100717.63
2022-12-15T17:04:13.181Z,100717.97
2022-12-15T17:06:39.992Z,100680.19
2022-12-15T17:09:08.869Z,100670.84
2022-12-15T17:11:35.624Z,100680.56
2022-12-15T17:14:02.086Z,100718.06
2022-12-15T17:16:29.908Z,100731.09
2022-12-15T17:18:56.845Z,100715.84
2022-12-15T17:21:48.932Z,100723.72
2022-12-15T17:24:18.120Z,100706.06
2022-12-15T17:26:45.204Z,100723.56
2022-12-15T17:29:18.027Z,100730.91
2022-12-15T17:31:44.608Z,100701.84
2022-12-15T17:34:34.663Z,100726.66
2022-12-15T17:37:04.423Z,100746.94
2022-12-15T17:39:34.125Z,100734.72
2022-12-15T17:42:02.091Z,100727.31
2022-12-15T17:44:34.087Z,100743.72
2022-12-15T17:47:02.102Z,100747.41
2022-12-15T17:49:34.659Z,100745.66
2022-12-15T17:52:05.021Z,100733.16
2022-12-15T17:54:31.590Z,100758.94
2022-12-15T17:56:58.718Z,100757.81
2022-12-15T17:59:25.365Z,100733.94
2022-12-15T18:01:52.304Z,100748.88
2022-12-15T18:04:19.967Z,100766.81
2022-12-15T18:06:46.530Z,100766.31
2022-12-15T18:09:16.436Z,100782.44
2022-12-15T18:11:45.233Z,100729.22
2022-12-15T18:14:15.033Z,100762.09
2022-12-15T18:16:42.335Z,100772.75
2022-12-15T18:19:09.278Z,100773.25
2022-12-15T18:21:36.132Z,100775.69
2022-12-15T18:24:02.915Z,100777.34
2022-12-15T18:26:31.604Z,100755.78
2022-12-15T18:28:58.147Z,100791.66
2022-12-15T18:34:00.907Z,100785.03
2022-12-15T18:36:30.739Z,100743.53
2022-12-15T18:38:57.163Z,100775.06
2022-12-15T18:41:23.664Z,100770.41
2022-12-15T18:43:50.261Z,100793.75
2022-12-15T18:46:18.853Z,100807.97
2022-12-15T18:48:45.941Z,100797.75
2022-12-15T18:51:18.268Z,100804.97
2022-12-15T18:53:46.143Z,100759.09
2022-12-15T18:56:15.448Z,100803.78
2022-12-15T18:58:42.570Z,100804.16
2022-12-15T19:01:09.272Z,100809.97
2022-12-15T19:03:36.689Z,100817.03
2022-12-15T19:06:15.733Z,100826.88
2022-12-15T19:08:42.322Z,100820.78
2022-12-15T19:11:17.240Z,100827.75
2022-12-15T19:13:44.024Z,100822.47
2022-12-15T19:16:16.602Z,100780.03
2022-12-15T19:19:01.607Z,100777.94
2022-12-15T19:21:48.467Z,100845.63
2022-12-15T19:24:17.929Z,100800.66
2022-12-15T19:26:44.596Z,100847.72
2022-12-15T19:29:19.461Z,100859.28
2022-12-15T19:31:47.007Z,100807.25
2022-12-15T19:34:14.426Z,100860.84
2022-12-15T19:36:41.184Z,100803.22
2022-12-15T19:39:16.896Z,100863.88
2022-12-15T19:41:43.391Z,100856.97
2022-12-15T19:44:14.618Z,100842.22
2022-12-15T19:46:44.235Z,100872.41
2022-12-15T19:49:10.770Z,100847.63
2022-12-15T19:51:37.629Z,100877.41
2022-12-15T19:54:04.400Z,100850.88
2022-12-15T19:56:31.289Z,100828.34
2022-12-15T19:58:58.007Z,100824.59
2022-12-15T20:01:24.685Z,100863.47
2022-12-15T20:03:53.211Z,100869.09
2022-12-15T20:06:24.958Z,100819.75
2022-12-15T20:08:54.791Z,100876.94
2022-12-15T20:11:22.851Z,100877.13
2022-12-15T20:13:50.400Z,100880.78
2022-12-15T20:16:19.115Z,100885.31
2022-12-15T20:18:49.918Z,100888.97
2022-12-15T20:21:22.237Z,100869.25
2022-12-15T20:23:54.770Z,100895.50
2022-12-15T20:26:22.868Z,100899.09
2022-12-15T20:28:49.441Z,100866.94
2022-12-15T20:31:19.128Z,100852.97
2022-12-15T20:33:46.548Z,100923.34
2022-12-15T20:36:18.988Z,100879.09
2022-12-15T20:38:46.458Z,100900.88
2022-12-15T20:41:22.377Z,100865.31
2022-12-15T20:43:50.127Z,100901.63
2022-12-15T20:46:22.911Z,100913.72
2022-12-15T20:48:50.745Z,100889.53
2022-12-15T20:51:24.304Z,100925.03
2022-12-15T20:53:52.569Z,100928.34
2022-12-15T20:56:22.024Z,100921.59
2022-12-15T20:58:49.852Z,100923.03
2022-12-15T21:01:22.763Z,100917.91
2022-12-15T21:03:51.815Z,100916.28
2022-12-15T21:06:18.643Z,100846.56
2022-12-15T21:08:45.394Z,100926.19
2022-12-15T21:11:20.938Z,100927.97
2022-12-15T21:13:49.168Z,100922.06
2022-12-15T21:16:19.788Z,100935.09
2022-12-15T21:21:37.115Z,100908.28
2022-12-15T21:24:22.900Z,100928.78
2022-12-15T21:26:50.532Z,100931.53
2022-12-15T21:29:19.282Z,100931.09
2022-12-15T21:31:46.754Z,100923.47
2022-12-15T21:34:14.135Z,100926.22
2022-12-15T21:36:43.134Z,100932.31
2022-12-15T21:39:15.459Z,100886.06
2022-12-15T21:41:43.105Z,100925.59
2022-12-15T21:44:14.245Z,100942.84
2022-12-15T21:46:41.588Z,100898.00
2022-12-15T21:49:15.430Z,100941.03
2022-12-15T21:51:44.156Z,100936.50
2022-12-15T21:54:17.178Z,100924.25
2022-12-15T21:56:44.580Z,100917.38
2022-12-15T21:59:19.842Z,100922.84
2022-12-15T22:01:47.380Z,100865.16
2022-12-15T22:04:20.009Z,100940.78
2022-12-15T22:06:50.513Z,100950.63
2022-12-15T22:09:18.841Z,100901.84
2022-12-15T22:11:49.112Z,100910.97
2022-12-15T22:14:35.076Z,100874.63
2022-12-15T22:17:18.337Z,100923.34
2022-12-15T22:19:45.152Z,100922.94
2022-12-15T22:22:12.744Z,100939.03
2022-12-15T22:24:40.074Z,100945.06
2022-12-15T22:27:19.919Z,100885.31
2022-12-15T22:29:47.455Z,100954.38
2022-12-15T22:32:15.402Z,100919.56
2022-12-15T22:34:42.203Z,100956.72
2022-12-15T22:37:08.719Z,100947.50
2022-12-15T22:39:35.285Z,100905.06
2022-12-15T22:42:04.189Z,100941.25
2022-12-15T22:44:34.878Z,100936.47
2022-12-15T22:47:02.849Z,100959.78
2022-12-15T22:49:36.615Z,100995.56
2022-12-15T22:52:13.763Z,100969.81
2022-12-15T22:54:43.988Z,100970.34
2022-12-15T22:57:23.217Z,100955.00
2022-12-15T23:00:00.642Z,100967.22
2022-12-15T23:02:31.205Z,100972.53
2022-12-15T23:04:57.823Z,100972.16
2022-12-15T23:07:24.520Z,100935.59
2022-12-15T23:10:10.983Z,100978.72
2022-12-15T23:12:37.549Z,100912.88
2022-12-15T23:15:23.137Z,100976.66
2022-12-15T23:17:49.634Z,100976.41
2022-12-15T23:20:16.908Z,100926.19
2022-12-15T23:22:43.318Z,100944.28
2022-12-15T23:25:10.325Z,100926.06
2022-12-15T23:27:36.757Z,100989.91
2022-12-15T23:30:03.707Z,101001.31
2022-12-15T23:32:30.182Z,100961.34
2022-12-15T23:34:56.733Z,101004.63
2022-12-15T23:37:23.195Z,101003.56
2022-12-15T23:39:49.644Z,101005.25
2022-12-15T23:42:18.214Z,100986.56
2022-12-15T23:44:44.742Z,100983.00
2022-12-15T23:47:11.299Z,101000.13
2022-12-15T23:49:37.865Z,100964.84
2022-12-15T23:52:04.427Z,101016.75
2022-12-15T23:54:31.118Z,101021.94
2022-12-15T23:56:57.601Z,100951.03
2022-12-15T23:59:24.045Z,101004.56
